createdAt,value
2022-12-31T00:02:55.526Z,100473.78
2022-12-31T00:05:57.902Z,100470.69
2022-12-31T00:09:02.452Z,100464.41
2022-12-31T00:12:04.655Z,100467.09
2022-12-31T00:15:07.424Z,100468.66
2022-12-31T00:18:10.806Z,100463.38
2022-12-31T00:21:15.401Z,100461.66
2022-12-31T00:24:17.561Z,100472.84
2022-12-31T00:27:19.685Z,100470.38
2022-12-31T00:30:22.097Z,100479.81
2022-12-31T00:33:24.380Z,100486.56
2022-12-31T00:36:35.643Z,100488.44
2022-12-31T00:39:37.722Z,100489.28
2022-12-31T00:42:39.855Z,100489.13
2022-12-31T00:45:42.690Z,100507.44
2022-12-31T00:48:45.063Z,100505.84
2022-12-31T00:51:47.489Z,100508.41
2022-12-31T00:54:49.626Z,100514.53
2022-12-31T00:57:51.689Z,100518.97
2022-12-31T01:00:53.919Z,100519.91
2022-12-31T01:04:00.086Z,100523.28
2022-12-31T01:07:02.276Z,100528.13
2022-12-31T01:10:06.520Z,100529.94
2022-12-31T01:13:08.897Z,100541.34
2022-12-31T01:16:13.433Z,100546.53
2022-12-31T01:19:19.351Z,100553.69
2022-12-31T01:22:21.523Z,100551.12
2022-12-31T01:25:23.617Z,100556.25
2022-12-31T01:28:26.073Z,100548.25
2022-12-31T01:31:28.666Z,100559.50
2022-12-31T01:34:30.818Z,100567.03
2022-12-31T01:37:32.895Z,100578.44
2022-12-31T01:40:39.497Z,100580.19
2022-12-31T01:43:54.333Z,100582.03
2022-12-31T01:47:02.630Z,100584.56
2022-12-31T01:50:10.444Z,100577.53
2022-12-31T01:53:13.325Z,100579.28
2022-12-31T01:56:16.062Z,100566.19
2022-12-31T01:59:19.956Z,100575.81
2022-12-31T02:02:22.884Z,100584.50
2022-12-31T02:05:33.501Z,100585.31
2022-12-31T02:08:41.804Z,100595.72
2022-12-31T02:11:44.325Z,100597.78
2022-12-31T02:14:52.390Z,100590.09
2022-12-31T02:18:06.598Z,100589.91
2022-12-31T02:21:20.684Z,100600.44
2022-12-31T02:24:30.574Z,100596.63
2022-12-31T02:27:59.197Z,100604.97
2022-12-31T02:31:11.461Z,100607.56
2022-12-31T02:34:33.437Z,100610.75
2022-12-31T02:37:37.658Z,100596.69
2022-12-31T02:40:40.338Z,100594.03
2022-12-31T02:43:48.552Z,100590.66
2022-12-31T02:47:10.413Z,100593.56
2022-12-31T02:50:42.025Z,100602.03
2022-12-31T02:53:50.322Z,100599.37
2022-12-31T02:57:13.081Z,100580.97
2022-12-31T03:00:35.491Z,100578.94
2022-12-31T03:03:38.361Z,100584.31
2022-12-31T03:06:42.099Z,100590.59
2022-12-31T03:09:44.243Z,100600.91
2022-12-31T03:12:49.697Z,100600.91
2022-12-31T03:15:51.849Z,100605.19
2022-12-31T03:19:12.649Z,100627.88
2022-12-31T03:22:30.006Z,100628.91
2022-12-31T03:25:41.092Z,100625.66
2022-12-31T03:28:48.058Z,100633.34
2022-12-31T03:31:50.256Z,100638.06
2022-12-31T03:34:52.327Z,100631.34
2022-12-31T03:37:54.779Z,100636.22
2022-12-31T03:40:57.004Z,100630.78
2022-12-31T03:43:59.079Z,100627.88
2022-12-31T03:47:01.227Z,100624.16
2022-12-31T03:50:05.289Z,100627.50
2022-12-31T03:53:07.541Z,100621.19
2022-12-31T03:56:09.662Z,100628.09
2022-12-31T03:59:11.861Z,100637.06
2022-12-31T04:02:14.171Z,100638.75
2022-12-31T04:05:17.980Z,100635.34
2022-12-31T04:08:20.168Z,100631.69
2022-12-31T04:11:22.402Z,100626.09
2022-12-31T04:14:24.654Z,100620.00
2022-12-31T04:17:26.740Z,100627.94
2022-12-31T04:20:29.121Z,100634.81
2022-12-31T04:23:31.624Z,100637.28
2022-12-31T04:26:34.291Z,100644.44
2022-12-31T04:29:36.752Z,100642.59
2022-12-31T04:32:39.115Z,100650.34
2022-12-31T04:35:41.192Z,100651.09
2022-12-31T04:38:43.308Z,100657.41
2022-12-31T04:41:45.379Z,100652.06
2022-12-31T04:44:47.502Z,100656.56
2022-12-31T04:47:49.585Z,100656.72
2022-12-31T04:50:51.886Z,100662.94
2022-12-31T04:53:54.810Z,100668.47
2022-12-31T04:56:56.951Z,100681.75
2022-12-31T04:59:59.074Z,100693.50
2022-12-31T05:03:01.162Z,100692.41
2022-12-31T05:06:09.763Z,100702.22
2022-12-31T05:09:11.840Z,100706.50
2022-12-31T05:12:13.938Z,100706.88
2022-12-31T05:15:16.018Z,100705.25
2022-12-31T05:18:19.121Z,100702.94
2022-12-31T05:21:22.292Z,100697.00
2022-12-31T05:24:24.396Z,100699.97
2022-12-31T05:27:28.106Z,100692.97
2022-12-31T05:30:30.451Z,100688.22
2022-12-31T05:33:32.586Z,100690.84
2022-12-31T05:36:34.631Z,100694.06
2022-12-31T05:39:36.757Z,100717.53
2022-12-31T05:42:39.817Z,100717.72
2022-12-31T05:45:41.870Z,100727.69
2022-12-31T05:48:43.979Z,100735.03
2022-12-31T05:51:46.149Z,100740.47
2022-12-31T05:54:48.207Z,100747.09
2022-12-31T05:57:50.488Z,100751.19
2022-12-31T06:00:53.231Z,100757.59
2022-12-31T06:03:55.828Z,100741.25
2022-12-31T06:06:58.044Z,100754.72
2022-12-31T06:10:00.329Z,100765.50
2022-12-31T06:13:02.673Z,100777.06
2022-12-31T06:16:06.953Z,100779.13
2022-12-31T06:19:09.838Z,100783.41
2022-12-31T06:22:11.882Z,100782.87
2022-12-31T06:25:14.111Z,100774.97
2022-12-31T06:28:20.425Z,100769.06
2022-12-31T06:31:22.992Z,100764.19
2022-12-31T06:34:25.220Z,100772.37
2022-12-31T06:37:27.361Z,100766.31
2022-12-31T06:40:29.579Z,100770.81
2022-12-31T06:43:32.137Z,100781.41
2022-12-31T06:46:34.304Z,100791.91
2022-12-31T06:49:36.460Z,100809.56
2022-12-31T06:52:38.857Z,100811.59
2022-12-31T06:55:41.965Z,100814.25
2022-12-31T06:58:44.753Z,100815.19
2022-12-31T07:02:18.651Z,100818.78
2022-12-31T07:05:32.926Z,100814.41
2022-12-31T07:08:51.838Z,100824.19
2022-12-31T07:12:06.707Z,100822.47
2022-12-31T07:15:26.884Z,100821.44
2022-12-31T07:18:43.953Z,100827.34
2022-12-31T07:21:46.434Z,100822.59
2022-12-31T07:24:49.105Z,100831.97
2022-12-31T07:28:20.434Z,100849.19
2022-12-31T07:31:22.546Z,100855.03
2022-12-31T07:34:55.105Z,100868.47
2022-12-31T07:38:12.917Z,100886.50
2022-12-31T07:41:45.716Z,100879.53
2022-12-31T07:44:50.468Z,100889.41
2022-12-31T07:47:55.298Z,100886.16
2022-12-31T07:51:01.349Z,100889.06
2022-12-31T07:54:06.408Z,100900.91
2022-12-31T07:57:14.389Z,100895.63
2022-12-31T08:00:17.147Z,100901.87
2022-12-31T08:03:36.078Z,100903.00
2022-12-31T08:06:53.631Z,100907.72
2022-12-31T08:10:17.304Z,100916.75
2022-12-31T08:13:21.166Z,100917.16
2022-12-31T08:16:23.896Z,100907.91
2022-12-31T08:19:32.242Z,100927.69
2022-12-31T08:23:15.535Z,100929.16
2022-12-31T08:26:32.537Z,100936.78
2022-12-31T08:30:17.621Z,100931.50
2022-12-31T08:33:28.664Z,100931.50
2022-12-31T08:36:41.579Z,100937.19
2022-12-31T08:40:24.207Z,100931.41
2022-12-31T08:43:51.059Z,100943.22
2022-12-31T08:47:02.699Z,100924.97
2022-12-31T08:50:05.649Z,100926.69
2022-12-31T08:53:08.225Z,100939.44
2022-12-31T08:56:43.744Z,100947.16
2022-12-31T09:00:07.864Z,100935.22
2022-12-31T09:03:13.275Z,100937.19
2022-12-31T09:06:41.256Z,100943.03
2022-12-31T09:09:59.804Z,100952.41
2022-12-31T09:13:09.697Z,100986.03
2022-12-31T09:16:21.418Z,100980.81
2022-12-31T09:19:23.616Z,100975.59
2022-12-31T09:22:26.321Z,100969.37
2022-12-31T09:25:29.704Z,100960.53
2022-12-31T09:28:47.629Z,100955.97
2022-12-31T09:31:52.599Z,100956.25
2022-12-31T09:35:13.377Z,100954.88
2022-12-31T09:38:31.008Z,100947.34
2022-12-31T09:42:18.068Z,100943.78
2022-12-31T09:45:38.102Z,100940.31
2022-12-31T09:49:12.507Z,100948.50
2022-12-31T09:53:02.400Z,100945.25
2022-12-31T09:56:15.887Z,100961.47
2022-12-31T09:59:36.092Z,100960.22
2022-12-31T10:02:58.710Z,100947.75
2022-12-31T10:06:34.394Z,100933.88
2022-12-31T10:09:42.824Z,100925.25
2022-12-31T10:13:25.995Z,100922.75
2022-12-31T10:16:49.828Z,100923.88
2022-12-31T10:20:00.164Z,100923.78
2022-12-31T10:23:26.694Z,100922.56
2022-12-31T10:26:53.078Z,100921.06
2022-12-31T10:30:13.458Z,100926.38
2022-12-31T10:33:44.964Z,100931.09
2022-12-31T10:36:58.931Z,100941.78
2022-12-31T10:40:37.896Z,100937.19
2022-12-31T10:44:17.113Z,100931.09
2022-12-31T10:47:28.110Z,100928.63
2022-12-31T10:51:09.250Z,100939.09
2022-12-31T10:54:42.169Z,100929.66
2022-12-31T10:58:04.070Z,100925.75
2022-12-31T11:01:28.049Z,100918.91
2022-12-31T11:05:00.588Z,100907.03
2022-12-31T11:08:14.553Z,100912.94
2022-12-31T11:11:22.425Z,100915.47
2022-12-31T11:14:48.981Z,100899.41
2022-12-31T11:17:53.655Z,100900.59
2022-12-31T11:21:04.524Z,100904.34
2022-12-31T11:24:38.247Z,100895.06
2022-12-31T11:27:59.360Z,100892.94
2022-12-31T11:31:20.989Z,100899.06
2022-12-31T11:34:39.554Z,100883.94
2022-12-31T11:37:50.614Z,100876.16
2022-12-31T11:41:19.667Z,100868.59
2022-12-31T11:44:21.657Z,100866.91
2022-12-31T11:51:50.131Z,100880.22
2022-12-31T11:55:38.387Z,100866.28
2022-12-31T11:58:51.828Z,100866.81
2022-12-31T12:02:12.841Z,100860.56
2022-12-31T12:05:20.277Z,100836.56
2022-12-31T12:08:22.786Z,100837.50
2022-12-31T12:11:27.744Z,100852.56
2022-12-31T12:14:32.840Z,100859.69
2022-12-31T12:17:35.562Z,100866.28
2022-12-31T12:20:41.805Z,100861.59
2022-12-31T12:24:05.240Z,100866.81
2022-12-31T12:27:22.108Z,100858.50
2022-12-31T12:30:28.325Z,100863.00
2022-12-31T12:33:42.145Z,100863.72
2022-12-31T12:36:48.312Z,100874.72
2022-12-31T12:40:21.587Z,100857.75
2022-12-31T12:43:32.342Z,100851.78
2022-12-31T12:46:52.737Z,100847.72
2022-12-31T12:49:55.702Z,100858.78
2022-12-31T12:52:59.492Z,100863.44
2022-12-31T12:56:23.287Z,100856.81
2022-12-31T12:59:34.477Z,100861.72
2022-12-31T13:02:55.282Z,100859.34
2022-12-31T13:06:44.964Z,100867.66
2022-12-31T13:09:59.224Z,100873.94
2022-12-31T13:13:26.219Z,100868.81
2022-12-31T13:16:51.272Z,100875.00
2022-12-31T13:20:12.955Z,100870.00
2022-12-31T13:23:26.746Z,100868.25
2022-12-31T13:27:03.375Z,100867.16
2022-12-31T13:30:15.820Z,100863.63
2022-12-31T13:33:25.794Z,100867.09
2022-12-31T13:36:30.087Z,100879.56
2022-12-31T13:39:38.940Z,100878.81
2022-12-31T13:42:52.021Z,100873.50
2022-12-31T13:46:20.480Z,100866.88
2022-12-31T13:49:29.960Z,100862.94
2022-12-31T13:52:38.328Z,100864.09
2022-12-31T13:55:44.847Z,100889.28
2022-12-31T13:58:53.340Z,100891.19
2022-12-31T14:02:26.261Z,100893.34
2022-12-31T14:05:34.219Z,100882.50
2022-12-31T14:08:36.550Z,100888.47
2022-12-31T14:12:06.620Z,100890.06
2022-12-31T14:15:23.899Z,100886.09
2022-12-31T14:18:45.047Z,100888.25
2022-12-31T14:22:08.584Z,100890.91
2022-12-31T14:25:29.346Z,100897.00
2022-12-31T14:28:47.751Z,100898.28
2022-12-31T14:31:49.892Z,100895.06
2022-12-31T14:35:40.113Z,100889.88
2022-12-31T14:39:04.001Z,100893.16
2022-12-31T14:42:29.881Z,100892.19
2022-12-31T14:46:04.193Z,100897.22
2022-12-31T14:49:25.174Z,100897.66
2022-12-31T14:52:35.342Z,100898.91
2022-12-31T14:55:40.826Z,100893.25
2022-12-31T14:58:43.806Z,100896.88
2022-12-31T15:01:46.767Z,100895.69
2022-12-31T15:04:49.027Z,100901.75
2022-12-31T15:08:18.057Z,100904.72
2022-12-31T15:11:42.027Z,100906.53
2022-12-31T15:14:56.207Z,100904.91
2022-12-31T15:18:19.503Z,100907.06
2022-12-31T15:21:49.139Z,100903.22
2022-12-31T15:24:51.456Z,100910.66
2022-12-31T15:27:54.394Z,100907.53
2022-12-31T15:31:03.741Z,100908.72
2022-12-31T15:34:23.753Z,100912.50
2022-12-31T15:37:33.110Z,100911.56
2022-12-31T15:40:44.108Z,100919.94
2022-12-31T15:43:49.297Z,100923.97
2022-12-31T15:47:14.828Z,100920.94
2022-12-31T15:50:22.864Z,100926.09
2022-12-31T15:53:39.782Z,100930.06
2022-12-31T15:56:49.255Z,100926.09
2022-12-31T15:59:58.715Z,100922.47
2022-12-31T16:03:01.218Z,100922.38
2022-12-31T16:06:10.084Z,100922.50
2022-12-31T16:09:25.241Z,100929.81
2022-12-31T16:12:34.386Z,100934.66
2022-12-31T16:15:39.314Z,100935.50
2022-12-31T16:18:44.065Z,100936.16
2022-12-31T16:21:46.231Z,100952.50
2022-12-31T16:25:29.051Z,100950.97
2022-12-31T16:28:20.406Z,100953.25
2022-12-31T16:31:22.856Z,100954.56
2022-12-31T16:34:27.536Z,100962.81
2022-12-31T16:37:29.688Z,100955.09
2022-12-31T16:40:32.112Z,100956.78
2022-12-31T16:43:38.855Z,100958.34
2022-12-31T16:46:41.222Z,100947.31
2022-12-31T16:49:46.410Z,100965.13
2022-12-31T16:52:59.698Z,100960.50
2022-12-31T16:56:09.233Z,100947.47
2022-12-31T16:59:34.954Z,100942.34
2022-12-31T17:02:45.340Z,100938.00
2022-12-31T17:06:06.325Z,100937.44
2022-12-31T17:09:20.937Z,100947.31
2022-12-31T17:12:24.977Z,100950.53
2022-12-31T17:15:38.260Z,100960.22
2022-12-31T17:18:44.115Z,100970.25
2022-12-31T17:21:48.750Z,100976.53
2022-12-31T17:24:51.809Z,100977.38
2022-12-31T17:28:03.811Z,100978.03
2022-12-31T17:31:28.262Z,100985.13
2022-12-31T17:34:50.782Z,100990.03
2022-12-31T17:37:52.988Z,100983.28
2022-12-31T17:40:57.747Z,100988.09
2022-12-31T17:43:59.978Z,100972.63
2022-12-31T17:47:03.470Z,100974.69
2022-12-31T17:50:09.817Z,100976.59
2022-12-31T17:53:12.965Z,100975.81
2022-12-31T17:56:18.776Z,100970.00
2022-12-31T17:59:23.932Z,100975.81
2022-12-31T18:02:26.372Z,100992.03
2022-12-31T18:05:28.670Z,100988.59
2022-12-31T18:08:30.895Z,100990.56
2022-12-31T18:11:33.777Z,100997.41
2022-12-31T18:14:36.077Z,101004.41
2022-12-31T18:17:38.481Z,101001.84
2022-12-31T18:20:40.594Z,100997.84
2022-12-31T18:23:48.398Z,100998.94
2022-12-31T18:26:51.213Z,101011.44
2022-12-31T18:29:54.270Z,101005.38
2022-12-31T18:32:58.792Z,101009.13
2022-12-31T18:36:09.586Z,101008.28
2022-12-31T18:39:12.369Z,101009.38
2022-12-31T18:42:17.188Z,101008.78
2022-12-31T18:45:20.997Z,101008.09
2022-12-31T18:48:23.080Z,101001.22
2022-12-31T18:51:31.276Z,101001.34
2022-12-31T18:54:34.087Z,100995.94
2022-12-31T18:57:36.198Z,100995.09
2022-12-31T19:00:38.622Z,100987.97
2022-12-31T19:03:40.833Z,100981.66
2022-12-31T19:06:43.172Z,100972.84
2022-12-31T19:09:46.806Z,100972.94
2022-12-31T19:12:50.366Z,100970.19
2022-12-31T19:15:53.502Z,100977.97
2022-12-31T19:18:55.627Z,100970.97
2022-12-31T19:21:57.945Z,100984.41
2022-12-31T19:25:00.033Z,100981.66
2022-12-31T19:28:03.813Z,100973.00
2022-12-31T19:31:06.599Z,100981.31
2022-12-31T19:34:08.784Z,100990.38
2022-12-31T19:37:16.849Z,100994.03
2022-12-31T19:40:22.746Z,101008.16
2022-12-31T19:43:25.076Z,101000.19
2022-12-31T19:46:27.908Z,101000.38
2022-12-31T19:49:30.035Z,101002.09
2022-12-31T19:52:32.121Z,101003.28
2022-12-31T19:55:34.248Z,101000.75
2022-12-31T19:58:36.387Z,101008.88
2022-12-31T20:01:38.718Z,101009.28
2022-12-31T20:04:41.144Z,101028.69
2022-12-31T20:07:43.536Z,101016.53
2022-12-31T20:10:46.318Z,101016.78
2022-12-31T20:13:49.792Z,101028.50
2022-12-31T20:16:52.745Z,101025.06
2022-12-31T20:19:55.147Z,101017.09
2022-12-31T20:22:58.320Z,101020.22
2022-12-31T20:26:01.641Z,101003.72
2022-12-31T20:29:03.811Z,101015.41
2022-12-31T20:32:06.940Z,101016.50
2022-12-31T20:35:09.259Z,101014.66
2022-12-31T20:38:11.355Z,101015.81
2022-12-31T20:41:15.794Z,101011.69
2022-12-31T20:44:18.107Z,101011.69
2022-12-31T20:47:20.447Z,101019.78
2022-12-31T20:50:22.833Z,101014.62
2022-12-31T20:53:24.966Z,101011.38
2022-12-31T20:56:29.735Z,101011.28
2022-12-31T20:59:32.024Z,101004.19
2022-12-31T21:02:43.280Z,100996.34
2022-12-31T21:05:53.762Z,100992.69
2022-12-31T21:08:57.894Z,100990.09
2022-12-31T21:12:19.497Z,100993.69
2022-12-31T21:15:21.911Z,101003.50
2022-12-31T21:18:24.068Z,100996.41
2022-12-31T21:21:26.226Z,100992.16
2022-12-31T21:24:28.385Z,101003.50
2022-12-31T21:27:31.030Z,100992.06
2022-12-31T21:30:33.752Z,100997.50
2022-12-31T21:33:35.888Z,100990.56
2022-12-31T21:36:38.073Z,101003.91
2022-12-31T21:39:40.631Z,100999.31
2022-12-31T21:42:42.991Z,100995.03
2022-12-31T21:45:45.182Z,100994.62
2022-12-31T21:48:47.478Z,100992.34
2022-12-31T21:52:08.150Z,100994.47
2022-12-31T21:55:30.623Z,101001.72
2022-12-31T21:58:33.497Z,100998.06
2022-12-31T22:01:54.139Z,100992.13
2022-12-31T22:05:06.879Z,100998.28
2022-12-31T22:08:14.850Z,100997.03
2022-12-31T22:11:18.752Z,100989.75
2022-12-31T22:14:20.957Z,100996.47
2022-12-31T22:17:23.181Z,101000.13
2022-12-31T22:20:28.006Z,101000.56
2022-12-31T22:23:31.344Z,101007.78
2022-12-31T22:26:33.559Z,100995.47
2022-12-31T22:29:35.784Z,101006.16
2022-12-31T22:32:38.059Z,101008.09
2022-12-31T22:35:40.221Z,101006.47
2022-12-31T22:38:42.781Z,100996.87
2022-12-31T22:41:46.591Z,101002.78
2022-12-31T22:44:48.657Z,101000.22
2022-12-31T22:47:51.033Z,100995.88
2022-12-31T22:50:57.553Z,100999.53
2022-12-31T22:53:59.738Z,101007.63
2022-12-31T22:57:01.892Z,100998.00
2022-12-31T23:00:10.134Z,100993.91
2022-12-31T23:03:12.989Z,100980.78
2022-12-31T23:06:15.673Z,100985.97
2022-12-31T23:09:36.755Z,100984.22
2022-12-31T23:12:38.958Z,100972.91
2022-12-31T23:16:03.672Z,100979.13
2022-12-31T23:19:25.868Z,100968.47
2022-12-31T23:22:46.496Z,100969.78
2022-12-31T23:25:51.128Z,100961.59
2022-12-31T23:28:54.557Z,100955.47
2022-12-31T23:31:59.051Z,100963.41
2022-12-31T23:35:09.341Z,100952.97
2022-12-31T23:38:14.437Z,100956.16
2022-12-31T23:41:21.135Z,100941.13
2022-12-31T23:44:24.719Z,100946.25
2022-12-31T23:47:28.647Z,100944.41
2022-12-31T23:50:32.537Z,100949.53
2022-12-31T23:53:39.142Z,100946.16
2022-12-31T23:56:43.191Z,100943.19
2022-12-31T23:59:46.800Z,100939.38
